Historique des mesures à Cassis (13260), France
Quotidien Résumé Fevrier 9, 2021 Unités:  Métrique/US    US   Métrique
Quotidien Hebdomadaire Mensuel Annuel
  Maximum: Minimum: Moyenne:
Température: 89.2 °F /  31.8 °C 74.5 °F /  23.6 °C 79.7 °F /  26.5 °C
Point de rosée: 61.3 °F /  16.3 °C 48.9 °F /  9.4 °C 55.4 °F /  13 °C
Humidité: 53% 39% 44%
Vitesse du vent: 6.5mph /  10.4km/h - 1.9mph /  3km/h
Rafales: 10.7mph /  17.3km/h - -
Vent- - East
Pression: 29.9 in /  1012.4 hPa 29.8 in /  1010.4 hPa -
Précipitations: 0 in /  0.0 mm    
Historical Graphs
 
 
Mesures pour : Fevrier 9, 2021
Heure Temperature Point de rosée Pression Vent Vitesse du vent Rafales Humidité Pluie (par heure)
00:11 75.4 °F /  24.1 °C 52 °F /  11.1 °C 29.9in /  1012.4hPa Calm   4mph /  6.5km/h 44% 0in /  0.0mm
01:11 74.8 °F /  23.8 °C 50.7 °F /  10.4 °C 29.9in /  1011.8hPa ENE 2.5mph /  4km/h 7.4mph /  11.9km/h 43% 0in /  0.0mm
02:11 74.7 °F /  23.7 °C 49.5 °F /  9.7 °C 29.9in /  1011.5hPa ESE 2.2mph /  3.6km/h 5.8mph /  9.4km/h 41% 0in /  0.0mm
03:11 74.8 °F /  23.8 °C 48.9 °F /  9.4 °C 29.9in /  1011.2hPa ESE 1.8mph /  2.9km/h 4.2mph /  6.8km/h 40% 0in /  0.0mm
04:11 74.5 °F /  23.6 °C 49.3 °F /  9.6 °C 29.9in /  1011.2hPa ENE 3.8mph /  6.1km/h 4.7mph /  7.6km/h 41% 0in /  0.0mm
05:11 74.8 °F /  23.8 °C 49.6 °F /  9.8 °C 29.9in /  1011.5hPa Calm   6.5mph /  10.4km/h 41% 0in /  0.0mm
06:11 75 °F /  23.9 °C 50.9 °F /  10.5 °C 29.9in /  1011.0hPa East 2.5mph /  4km/h 10.7mph /  17.3km/h 43% 0in /  0.0mm
07:11 75.6 °F /  24.2 °C 53.2 °F /  11.8 °C 29.9in /  1011.2hPa NE 5.8mph /  9.4km/h 8.1mph /  13km/h 46% 0in /  0.0mm
08:11 74.5 °F /  23.6 °C 54.1 °F /  12.3 °C 29.9in /  1011.1hPa East 3.1mph /  5km/h 4mph /  6.5km/h 49% 0in /  0.0mm
09:11 79.5 °F /  26.4 °C 54.3 °F /  12.4 °C 29.9in /  1011.0hPa SSE 6.5mph /  10.4km/h 9.2mph /  14.8km/h 42% 0in /  0.0mm
10:11 79.5 °F /  26.4 °C 55 °F /  12.8 °C 29.9in /  1011.2hPa ESE 1.1mph /  1.8km/h 5.3mph /  8.6km/h 43% 0in /  0.0mm
11:11 80.8 °F /  27.1 °C 55.6 °F /  13.1 °C 29.9in /  1011.5hPa ESE 5.2mph /  8.3km/h 7.4mph /  11.9km/h 42% 0in /  0.0mm
12:11 84.9 °F /  29.4 °C 58.1 °F /  14.5 °C 29.9in /  1011.2hPa SE 2.2mph /  3.6km/h 9.6mph /  15.5km/h 40% 0in /  0.0mm
13:11 87.6 °F /  30.9 °C 60.4 °F /  15.8 °C 29.9in /  1011.2hPa Calm   3.8mph /  6.1km/h 40% 0in /  0.0mm
14:11 89.2 °F /  31.8 °C 61 °F /  16.1 °C 29.9in /  1011.2hPa SE 4.5mph /  7.2km/h 10.5mph /  16.9km/h 39% 0in /  0.0mm
15:11 88 °F /  31.1 °C 61.3 °F /  16.3 °C 29.9in /  1010.8hPa Calm   6.7mph /  10.8km/h 41% 0in /  0.0mm
16:11 87.1 °F /  30.6 °C 61.2 °F /  16.2 °C 29.8in /  1010.6hPa Calm   7mph /  11.2km/h 42% 0in /  0.0mm
17:11 85.8 °F /  29.9 °C 59.5 °F /  15.3 °C 29.8in /  1010.4hPa SE 1.8mph /  2.9km/h 9.4mph /  15.1km/h 41% 0in /  0.0mm
18:11 83.7 °F /  28.7 °C 60.1 °F /  15.6 °C 29.8in /  1010.4hPa SE 1.6mph /  2.5km/h 8.3mph /  13.3km/h 45% 0in /  0.0mm
19:11 81.7 °F /  27.6 °C 60.6 °F /  15.9 °C 29.8in /  1010.5hPa Calm   2.2mph /  3.6km/h 49% 0in /  0.0mm
20:11 79.2 °F /  26.2 °C 60.6 °F /  15.9 °C 29.8in /  1010.6hPa Calm   3.6mph /  5.8km/h 53% 0in /  0.0mm
21:11 77.7 °F /  25.4 °C 55.8 °F /  13.2 °C 29.9in /  1011.1hPa Calm   1.1mph /  1.8km/h 47% 0in /  0.0mm
22:11 76.3 °F /  24.6 °C 54 °F /  12.2 °C 29.9in /  1011.5hPa North 0.9mph /  1.4km/h 2.5mph /  4km/h 46% 0in /  0.0mm
23:11 75.9 °F /  24.4 °C 53.1 °F /  11.7 °C 29.9in /  1011.3hPa Calm   4.9mph /  7.9km/h 45% 0in /  0.0mm
Observations météo à CASSIS
WU-History script by Weather Underground - 2 mb